sensor_id;sensor_type;location;lat;lon;timestamp;temperature;humidity
18729;DHT22;9493;51.884;5.188;2023-02-26T00:00:09;0.60;99.90
18729;DHT22;9493;51.884;5.188;2023-02-26T00:02:39;0.60;99.90
18729;DHT22;9493;51.884;5.188;2023-02-26T00:05:07;0.70;99.90
18729;DHT22;9493;51.884;5.188;2023-02-26T00:07:34;0.70;99.90
18729;DHT22;9493;51.884;5.188;2023-02-26T00:10:03;0.80;99.90
18729;DHT22;9493;51.884;5.188;2023-02-26T00:12:31;0.90;99.90
18729;DHT22;9493;51.884;5.188;2023-02-26T00:14:58;0.90;99.90
18729;DHT22;9493;51.884;5.188;2023-02-26T00:17:31;0.90;99.90
18729;DHT22;9493;51.884;5.188;2023-02-26T00:20:00;0.90;99.90
18729;DHT22;9493;51.884;5.188;2023-02-26T00:22:27;1.00;99.90
18729;DHT22;9493;51.884;5.188;2023-02-26T00:24:54;1.00;99.90
18729;DHT22;9493;51.884;5.188;2023-02-26T00:27:23;1.00;99.90
18729;DHT22;9493;51.884;5.188;2023-02-26T00:29:50;1.10;99.90
18729;DHT22;9493;51.884;5.188;2023-02-26T00:32:17;1.20;99.90
18729;DHT22;9493;51.884;5.188;2023-02-26T00:34:45;1.40;99.90
18729;DHT22;9493;51.884;5.188;2023-02-26T00:37:22;1.50;99.90
18729;DHT22;9493;51.884;5.188;2023-02-26T00:40:02;1.50;99.90
18729;DHT22;9493;51.884;5.188;2023-02-26T00:42:35;1.60;99.90
18729;DHT22;9493;51.884;5.188;2023-02-26T00:45:03;1.70;99.90
18729;DHT22;9493;51.884;5.188;2023-02-26T00:47:36;1.70;99.90
18729;DHT22;9493;51.884;5.188;2023-02-26T00:50:13;1.70;99.90
18729;DHT22;9493;51.884;5.188;2023-02-26T00:52:45;2.00;99.90
18729;DHT22;9493;51.884;5.188;2023-02-26T00:55:13;1.60;99.90
18729;DHT22;9493;51.884;5.188;2023-02-26T00:57:42;1.60;99.90
18729;DHT22;9493;51.884;5.188;2023-02-26T01:00:10;1.60;99.90
18729;DHT22;9493;51.884;5.188;2023-02-26T01:02:38;1.60;99.90
18729;DHT22;9493;51.884;5.188;2023-02-26T01:05:07;1.50;99.90
18729;DHT22;9493;51.884;5.188;2023-02-26T01:07:39;1.50;99.90
18729;DHT22;9493;51.884;5.188;2023-02-26T01:10:09;1.50;99.90
18729;DHT22;9493;51.884;5.188;2023-02-26T01:12:37;1.60;99.90
18729;DHT22;9493;51.884;5.188;2023-02-26T01:15:06;1.60;99.90
18729;DHT22;9493;51.884;5.188;2023-02-26T01:17:42;1.60;99.90
18729;DHT22;9493;51.884;5.188;2023-02-26T01:20:15;1.60;99.90
18729;DHT22;9493;51.884;5.188;2023-02-26T01:22:47;1.60;99.90
18729;DHT22;9493;51.884;5.188;2023-02-26T01:25:21;1.60;99.90
18729;DHT22;9493;51.884;5.188;2023-02-26T01:27:49;1.50;99.90
18729;DHT22;9493;51.884;5.188;2023-02-26T01:30:19;1.50;99.90
18729;DHT22;9493;51.884;5.188;2023-02-26T01:32:50;1.50;99.90
18729;DHT22;9493;51.884;5.188;2023-02-26T01:35:31;1.50;99.90
18729;DHT22;9493;51.884;5.188;2023-02-26T01:38:09;1.40;99.90
18729;DHT22;9493;51.884;5.188;2023-02-26T01:41:08;1.40;99.90
18729;DHT22;9493;51.884;5.188;2023-02-26T01:43:43;1.40;99.90
18729;DHT22;9493;51.884;5.188;2023-02-26T01:46:19;1.40;99.90
18729;DHT22;9493;51.884;5.188;2023-02-26T01:48:50;1.30;99.90
18729;DHT22;9493;51.884;5.188;2023-02-26T01:51:18;1.30;99.90
18729;DHT22;9493;51.884;5.188;2023-02-26T01:53:45;1.20;99.90
18729;DHT22;9493;51.884;5.188;2023-02-26T01:56:15;1.20;99.90
18729;DHT22;9493;51.884;5.188;2023-02-26T01:58:43;1.10;99.90
18729;DHT22;9493;51.884;5.188;2023-02-26T02:01:13;1.10;99.90
18729;DHT22;9493;51.884;5.188;2023-02-26T02:03:41;1.10;99.90
18729;DHT22;9493;51.884;5.188;2023-02-26T02:06:10;1.00;99.90
18729;DHT22;9493;51.884;5.188;2023-02-26T02:08:40;1.00;99.90
18729;DHT22;9493;51.884;5.188;2023-02-26T02:11:09;1.00;99.90
18729;DHT22;9493;51.884;5.188;2023-02-26T02:13:56;1.00;99.90
18729;DHT22;9493;51.884;5.188;2023-02-26T02:16:33;0.90;99.90
18729;DHT22;9493;51.884;5.188;2023-02-26T02:22:13;0.90;99.90
18729;DHT22;9493;51.884;5.188;2023-02-26T02:24:51;0.90;99.90
18729;DHT22;9493;51.884;5.188;2023-02-26T02:27:29;0.80;99.90
18729;DHT22;9493;51.884;5.188;2023-02-26T02:30:19;0.70;99.90
18729;DHT22;9493;51.884;5.188;2023-02-26T02:32:51;0.70;99.90
18729;DHT22;9493;51.884;5.188;2023-02-26T02:35:26;0.70;99.90
18729;DHT22;9493;51.884;5.188;2023-02-26T02:37:58;0.70;99.90
18729;DHT22;9493;51.884;5.188;2023-02-26T02:40:28;0.70;99.90
18729;DHT22;9493;51.884;5.188;2023-02-26T02:42:59;0.60;99.90
18729;DHT22;9493;51.884;5.188;2023-02-26T02:45:41;0.60;99.90
18729;DHT22;9493;51.884;5.188;2023-02-26T02:48:15;0.60;99.90
18729;DHT22;9493;51.884;5.188;2023-02-26T02:50:46;0.60;99.90
18729;DHT22;9493;51.884;5.188;2023-02-26T02:53:19;0.50;99.90
18729;DHT22;9493;51.884;5.188;2023-02-26T02:55:51;0.50;99.90
18729;DHT22;9493;51.884;5.188;2023-02-26T02:58:23;0.50;99.90
18729;DHT22;9493;51.884;5.188;2023-02-26T03:00:55;0.50;99.90
18729;DHT22;9493;51.884;5.188;2023-02-26T03:03:28;0.50;99.90
18729;DHT22;9493;51.884;5.188;2023-02-26T03:05:57;0.50;99.90
18729;DHT22;9493;51.884;5.188;2023-02-26T03:08:27;0.40;99.90
18729;DHT22;9493;51.884;5.188;2023-02-26T03:10:55;0.40;99.90
18729;DHT22;9493;51.884;5.188;2023-02-26T03:13:24;0.40;99.90
18729;DHT22;9493;51.884;5.188;2023-02-26T03:16:00;0.40;99.90
18729;DHT22;9493;51.884;5.188;2023-02-26T03:18:48;0.40;99.90
18729;DHT22;9493;51.884;5.188;2023-02-26T03:21:21;0.40;99.90
18729;DHT22;9493;51.884;5.188;2023-02-26T03:23:59;0.40;99.90
18729;DHT22;9493;51.884;5.188;2023-02-26T03:26:30;0.30;99.90
18729;DHT22;9493;51.884;5.188;2023-02-26T03:29:04;0.40;99.90
18729;DHT22;9493;51.884;5.188;2023-02-26T03:31:36;0.40;99.90
18729;DHT22;9493;51.884;5.188;2023-02-26T03:34:12;0.30;99.90
18729;DHT22;9493;51.884;5.188;2023-02-26T03:36:42;0.30;99.90
18729;DHT22;9493;51.884;5.188;2023-02-26T03:39:15;0.30;99.90
18729;DHT22;9493;51.884;5.188;2023-02-26T03:41:47;0.20;99.90
18729;DHT22;9493;51.884;5.188;2023-02-26T03:44:21;0.30;99.90
18729;DHT22;9493;51.884;5.188;2023-02-26T03:46:52;0.10;99.90
18729;DHT22;9493;51.884;5.188;2023-02-26T03:49:24;0.10;99.90
18729;DHT22;9493;51.884;5.188;2023-02-26T03:51:53;0.10;99.90
18729;DHT22;9493;51.884;5.188;2023-02-26T03:54:23;0.10;99.90
18729;DHT22;9493;51.884;5.188;2023-02-26T03:56:52;0.10;99.90
18729;DHT22;9493;51.884;5.188;2023-02-26T03:59:19;0.00;99.90
18729;DHT22;9493;51.884;5.188;2023-02-26T04:01:50;0.10;99.90
18729;DHT22;9493;51.884;5.188;2023-02-26T04:04:23;0.00;99.90
18729;DHT22;9493;51.884;5.188;2023-02-26T04:06:52;0.00;99.90
18729;DHT22;9493;51.884;5.188;2023-02-26T04:09:20;0.00;99.90
18729;DHT22;9493;51.884;5.188;2023-02-26T04:11:48;0.40;99.90
18729;DHT22;9493;51.884;5.188;2023-02-26T04:14:16;0.10;99.90
18729;DHT22;9493;51.884;5.188;2023-02-26T04:16:43;0.10;99.90
18729;DHT22;9493;51.884;5.188;2023-02-26T04:19:10;0.10;99.90
18729;DHT22;9493;51.884;5.188;2023-02-26T04:21:39;0.10;99.90
18729;DHT22;9493;51.884;5.188;2023-02-26T04:24:06;0.20;99.90
18729;DHT22;9493;51.884;5.188;2023-02-26T04:26:33;0.10;99.90
18729;DHT22;9493;51.884;5.188;2023-02-26T04:29:00;0.10;99.90
18729;DHT22;9493;51.884;5.188;2023-02-26T04:31:27;0.30;99.90
18729;DHT22;9493;51.884;5.188;2023-02-26T04:33:53;0.00;99.90
18729;DHT22;9493;51.884;5.188;2023-02-26T04:36:20;0.00;99.90
18729;DHT22;9493;51.884;5.188;2023-02-26T04:38:49;0.00;99.90
18729;DHT22;9493;51.884;5.188;2023-02-26T04:41:15;0.00;99.90
18729;DHT22;9493;51.884;5.188;2023-02-26T04:43:42;0.00;99.90
18729;DHT22;9493;51.884;5.188;2023-02-26T04:46:09;-0.10;99.90
18729;DHT22;9493;51.884;5.188;2023-02-26T04:48:36;-0.10;99.90
18729;DHT22;9493;51.884;5.188;2023-02-26T04:51:03;-0.10;99.90
18729;DHT22;9493;51.884;5.188;2023-02-26T04:53:30;0.00;99.90
18729;DHT22;9493;51.884;5.188;2023-02-26T04:55:59;-0.10;99.90
18729;DHT22;9493;51.884;5.188;2023-02-26T04:58:26;-0.10;99.90
18729;DHT22;9493;51.884;5.188;2023-02-26T05:00:53;-0.20;99.90
18729;DHT22;9493;51.884;5.188;2023-02-26T05:03:20;-0.20;99.90
18729;DHT22;9493;51.884;5.188;2023-02-26T05:05:47;-0.20;99.90
18729;DHT22;9493;51.884;5.188;2023-02-26T05:08:14;-0.20;99.90
18729;DHT22;9493;51.884;5.188;2023-02-26T05:10:41;-0.20;99.90
18729;DHT22;9493;51.884;5.188;2023-02-26T05:13:09;-0.20;99.90
18729;DHT22;9493;51.884;5.188;2023-02-26T05:15:36;-0.30;99.90
18729;DHT22;9493;51.884;5.188;2023-02-26T05:18:03;-0.30;99.90
18729;DHT22;9493;51.884;5.188;2023-02-26T05:20:30;-0.30;99.90
18729;DHT22;9493;51.884;5.188;2023-02-26T05:22:57;-0.30;99.90
18729;DHT22;9493;51.884;5.188;2023-02-26T05:25:24;-0.30;99.90
18729;DHT22;9493;51.884;5.188;2023-02-26T05:27:51;-0.40;99.90
18729;DHT22;9493;51.884;5.188;2023-02-26T05:30:19;-0.40;99.90
18729;DHT22;9493;51.884;5.188;2023-02-26T05:32:46;-0.40;99.90
18729;DHT22;9493;51.884;5.188;2023-02-26T05:35:13;-0.40;99.90
18729;DHT22;9493;51.884;5.188;2023-02-26T05:37:40;-0.40;99.90
18729;DHT22;9493;51.884;5.188;2023-02-26T05:40:08;-0.40;99.90
18729;DHT22;9493;51.884;5.188;2023-02-26T05:42:36;-0.40;99.90
18729;DHT22;9493;51.884;5.188;2023-02-26T05:45:04;-0.40;99.90
18729;DHT22;9493;51.884;5.188;2023-02-26T05:47:33;-0.30;99.90
18729;DHT22;9493;51.884;5.188;2023-02-26T05:50:00;-0.40;99.90
18729;DHT22;9493;51.884;5.188;2023-02-26T05:52:27;-0.40;99.90
18729;DHT22;9493;51.884;5.188;2023-02-26T05:54:55;-0.40;99.90
18729;DHT22;9493;51.884;5.188;2023-02-26T05:57:21;-0.40;99.90
18729;DHT22;9493;51.884;5.188;2023-02-26T05:59:48;-0.40;99.90
18729;DHT22;9493;51.884;5.188;2023-02-26T06:02:15;-0.40;99.90
18729;DHT22;9493;51.884;5.188;2023-02-26T06:04:44;-0.40;99.90
18729;DHT22;9493;51.884;5.188;2023-02-26T06:07:11;-0.40;99.90
18729;DHT22;9493;51.884;5.188;2023-02-26T06:09:38;-0.40;99.90
18729;DHT22;9493;51.884;5.188;2023-02-26T06:12:05;-0.40;99.90
18729;DHT22;9493;51.884;5.188;2023-02-26T06:14:33;-0.40;99.90
18729;DHT22;9493;51.884;5.188;2023-02-26T06:17:01;-0.50;99.90
18729;DHT22;9493;51.884;5.188;2023-02-26T06:19:28;-0.50;99.90
18729;DHT22;9493;51.884;5.188;2023-02-26T06:21:56;-0.40;99.90
18729;DHT22;9493;51.884;5.188;2023-02-26T06:24:23;-0.50;99.90
18729;DHT22;9493;51.884;5.188;2023-02-26T06:26:51;-0.40;99.90
18729;DHT22;9493;51.884;5.188;2023-02-26T06:29:18;-0.40;99.90
18729;DHT22;9493;51.884;5.188;2023-02-26T06:31:45;-0.40;99.90
18729;DHT22;9493;51.884;5.188;2023-02-26T06:34:12;-0.40;99.90
18729;DHT22;9493;51.884;5.188;2023-02-26T06:36:39;-0.50;99.90
18729;DHT22;9493;51.884;5.188;2023-02-26T06:39:07;-0.40;99.90
18729;DHT22;9493;51.884;5.188;2023-02-26T06:41:34;-0.40;99.90
18729;DHT22;9493;51.884;5.188;2023-02-26T06:44:02;-0.40;99.90
18729;DHT22;9493;51.884;5.188;2023-02-26T06:46:29;-0.40;99.90
18729;DHT22;9493;51.884;5.188;2023-02-26T06:48:56;-0.40;99.90
18729;DHT22;9493;51.884;5.188;2023-02-26T06:51:23;-0.50;99.90
18729;DHT22;9493;51.884;5.188;2023-02-26T06:53:50;-0.40;99.90
18729;DHT22;9493;51.884;5.188;2023-02-26T06:56:20;-0.30;99.90
18729;DHT22;9493;51.884;5.188;2023-02-26T06:58:47;-0.40;99.90
18729;DHT22;9493;51.884;5.188;2023-02-26T07:01:14;-0.40;99.90
18729;DHT22;9493;51.884;5.188;2023-02-26T07:03:41;-0.40;99.90
18729;DHT22;9493;51.884;5.188;2023-02-26T07:06:09;-0.30;99.90
18729;DHT22;9493;51.884;5.188;2023-02-26T07:08:38;-0.10;99.90
18729;DHT22;9493;51.884;5.188;2023-02-26T07:11:05;-0.30;99.90
18729;DHT22;9493;51.884;5.188;2023-02-26T07:13:34;-0.30;99.90
18729;DHT22;9493;51.884;5.188;2023-02-26T07:16:01;-0.20;99.90
18729;DHT22;9493;51.884;5.188;2023-02-26T07:18:31;-0.20;99.90
18729;DHT22;9493;51.884;5.188;2023-02-26T07:20:59;-0.20;99.90
18729;DHT22;9493;51.884;5.188;2023-02-26T07:23:26;-0.10;99.90
18729;DHT22;9493;51.884;5.188;2023-02-26T07:25:53;-0.10;99.90
18729;DHT22;9493;51.884;5.188;2023-02-26T07:28:20;-0.10;99.90
18729;DHT22;9493;51.884;5.188;2023-02-26T07:30:49;0.00;99.90
18729;DHT22;9493;51.884;5.188;2023-02-26T07:33:16;0.00;99.90
18729;DHT22;9493;51.884;5.188;2023-02-26T07:35:42;0.10;99.90
18729;DHT22;9493;51.884;5.188;2023-02-26T07:38:09;0.20;99.90
18729;DHT22;9493;51.884;5.188;2023-02-26T07:40:36;0.20;99.90
18729;DHT22;9493;51.884;5.188;2023-02-26T07:43:03;0.30;99.90
18729;DHT22;9493;51.884;5.188;2023-02-26T07:45:30;0.30;99.90
18729;DHT22;9493;51.884;5.188;2023-02-26T07:47:58;0.30;99.90
18729;DHT22;9493;51.884;5.188;2023-02-26T07:50:25;0.40;99.90
18729;DHT22;9493;51.884;5.188;2023-02-26T07:52:52;0.50;99.90
18729;DHT22;9493;51.884;5.188;2023-02-26T07:55:19;0.50;99.90
18729;DHT22;9493;51.884;5.188;2023-02-26T07:57:46;0.60;99.90
18729;DHT22;9493;51.884;5.188;2023-02-26T08:00:14;0.60;99.90
18729;DHT22;9493;51.884;5.188;2023-02-26T08:02:41;0.70;99.90
18729;DHT22;9493;51.884;5.188;2023-02-26T08:05:09;0.70;99.90
18729;DHT22;9493;51.884;5.188;2023-02-26T08:07:36;0.70;99.90
18729;DHT22;9493;51.884;5.188;2023-02-26T08:10:03;0.80;99.90
18729;DHT22;9493;51.884;5.188;2023-02-26T08:12:30;0.90;99.90
18729;DHT22;9493;51.884;5.188;2023-02-26T08:14:58;1.00;99.90
18729;DHT22;9493;51.884;5.188;2023-02-26T08:17:25;1.00;99.90
18729;DHT22;9493;51.884;5.188;2023-02-26T08:19:51;1.00;99.90
18729;DHT22;9493;51.884;5.188;2023-02-26T08:22:20;1.10;99.90
18729;DHT22;9493;51.884;5.188;2023-02-26T08:24:48;1.20;99.90
18729;DHT22;9493;51.884;5.188;2023-02-26T08:27:15;1.30;99.90
18729;DHT22;9493;51.884;5.188;2023-02-26T08:29:41;1.40;99.90
18729;DHT22;9493;51.884;5.188;2023-02-26T08:32:10;1.40;99.90
18729;DHT22;9493;51.884;5.188;2023-02-26T08:34:37;1.50;99.90
18729;DHT22;9493;51.884;5.188;2023-02-26T08:37:04;1.60;99.90
18729;DHT22;9493;51.884;5.188;2023-02-26T08:39:35;1.60;99.90
18729;DHT22;9493;51.884;5.188;2023-02-26T08:42:03;1.70;99.90
18729;DHT22;9493;51.884;5.188;2023-02-26T08:44:31;1.90;99.90
18729;DHT22;9493;51.884;5.188;2023-02-26T08:46:58;1.90;99.90
18729;DHT22;9493;51.884;5.188;2023-02-26T08:49:24;2.00;99.90
18729;DHT22;9493;51.884;5.188;2023-02-26T08:51:51;2.20;99.90
18729;DHT22;9493;51.884;5.188;2023-02-26T08:54:18;2.20;99.90
18729;DHT22;9493;51.884;5.188;2023-02-26T08:56:47;2.30;99.90
18729;DHT22;9493;51.884;5.188;2023-02-26T08:59:13;2.40;99.90
18729;DHT22;9493;51.884;5.188;2023-02-26T09:01:40;2.40;99.90
18729;DHT22;9493;51.884;5.188;2023-02-26T09:04:07;2.50;99.90
18729;DHT22;9493;51.884;5.188;2023-02-26T09:06:34;2.70;99.90
18729;DHT22;9493;51.884;5.188;2023-02-26T09:09:00;2.70;99.90
18729;DHT22;9493;51.884;5.188;2023-02-26T09:11:27;2.70;99.90
18729;DHT22;9493;51.884;5.188;2023-02-26T09:13:56;2.90;99.90
18729;DHT22;9493;51.884;5.188;2023-02-26T09:16:23;3.20;99.90
18729;DHT22;9493;51.884;5.188;2023-02-26T09:18:50;3.20;99.90
18729;DHT22;9493;51.884;5.188;2023-02-26T09:21:17;3.50;99.90
18729;DHT22;9493;51.884;5.188;2023-02-26T09:23:44;3.60;99.90
18729;DHT22;9493;51.884;5.188;2023-02-26T09:26:10;3.60;99.90
18729;DHT22;9493;51.884;5.188;2023-02-26T09:28:37;3.90;99.90
18729;DHT22;9493;51.884;5.188;2023-02-26T09:31:05;3.80;99.90
18729;DHT22;9493;51.884;5.188;2023-02-26T09:33:32;3.90;99.90
18729;DHT22;9493;51.884;5.188;2023-02-26T09:35:59;3.90;99.90
18729;DHT22;9493;51.884;5.188;2023-02-26T09:38:26;4.10;99.90
18729;DHT22;9493;51.884;5.188;2023-02-26T09:40:55;4.10;99.90
18729;DHT22;9493;51.884;5.188;2023-02-26T09:46:25;4.60;99.90
18729;DHT22;9493;51.884;5.188;2023-02-26T09:49:02;4.60;99.90
18729;DHT22;9493;51.884;5.188;2023-02-26T09:51:33;4.80;99.90
18729;DHT22;9493;51.884;5.188;2023-02-26T09:54:07;4.70;99.80
18729;DHT22;9493;51.884;5.188;2023-02-26T09:56:35;4.60;99.70
18729;DHT22;9493;51.884;5.188;2023-02-26T09:59:02;4.80;99.60
18729;DHT22;9493;51.884;5.188;2023-02-26T10:01:35;4.90;99.40
18729;DHT22;9493;51.884;5.188;2023-02-26T10:04:13;5.10;99.10
18729;DHT22;9493;51.884;5.188;2023-02-26T10:06:54;5.00;98.90
18729;DHT22;9493;51.884;5.188;2023-02-26T10:09:31;5.40;98.60
18729;DHT22;9493;51.884;5.188;2023-02-26T10:12:03;5.60;98.10
18729;DHT22;9493;51.884;5.188;2023-02-26T10:14:34;5.50;97.70
18729;DHT22;9493;51.884;5.188;2023-02-26T10:17:10;5.50;97.50
18729;DHT22;9493;51.884;5.188;2023-02-26T10:19:43;5.80;97.10
18729;DHT22;9493;51.884;5.188;2023-02-26T10:22:15;6.00;96.90
18729;DHT22;9493;51.884;5.188;2023-02-26T10:24:46;6.20;96.70
18729;DHT22;9493;51.884;5.188;2023-02-26T10:27:15;6.50;96.40
18729;DHT22;9493;51.884;5.188;2023-02-26T10:29:46;6.40;95.70
18729;DHT22;9493;51.884;5.188;2023-02-26T10:32:23;6.60;95.40
18729;DHT22;9493;51.884;5.188;2023-02-26T10:34:53;6.20;94.80
18729;DHT22;9493;51.884;5.188;2023-02-26T10:37:28;6.20;94.40
18729;DHT22;9493;51.884;5.188;2023-02-26T10:40:02;5.90;94.20
18729;DHT22;9493;51.884;5.188;2023-02-26T10:42:38;5.90;93.90
18729;DHT22;9493;51.884;5.188;2023-02-26T10:45:16;6.20;93.80
18729;DHT22;9493;51.884;5.188;2023-02-26T10:47:56;6.80;93.80
18729;DHT22;9493;51.884;5.188;2023-02-26T10:50:25;7.00;93.70
18729;DHT22;9493;51.884;5.188;2023-02-26T10:52:53;7.10;93.50
18729;DHT22;9493;51.884;5.188;2023-02-26T10:55:33;6.90;93.50
18729;DHT22;9493;51.884;5.188;2023-02-26T10:58:05;6.60;93.30
18729;DHT22;9493;51.884;5.188;2023-02-26T11:00:32;6.80;93.00
18729;DHT22;9493;51.884;5.188;2023-02-26T11:03:03;7.00;92.70
18729;DHT22;9493;51.884;5.188;2023-02-26T11:05:31;7.20;92.70
18729;DHT22;9493;51.884;5.188;2023-02-26T11:08:02;7.10;92.60
18729;DHT22;9493;51.884;5.188;2023-02-26T11:10:41;7.50;92.50
18729;DHT22;9493;51.884;5.188;2023-02-26T11:13:10;7.90;92.60
18729;DHT22;9493;51.884;5.188;2023-02-26T11:15:37;7.90;92.60
18729;DHT22;9493;51.884;5.188;2023-02-26T11:18:11;7.70;92.70
18729;DHT22;9493;51.884;5.188;2023-02-26T11:20:41;7.80;92.60
18729;DHT22;9493;51.884;5.188;2023-02-26T11:23:12;7.50;92.40
18729;DHT22;9493;51.884;5.188;2023-02-26T11:25:40;7.40;92.40
18729;DHT22;9493;51.884;5.188;2023-02-26T11:28:19;7.50;92.20
18729;DHT22;9493;51.884;5.188;2023-02-26T11:30:46;7.80;92.00
18729;DHT22;9493;51.884;5.188;2023-02-26T11:33:19;7.40;91.80
18729;DHT22;9493;51.884;5.188;2023-02-26T11:35:47;7.60;91.50
18729;DHT22;9493;51.884;5.188;2023-02-26T11:38:18;8.20;91.50
18729;DHT22;9493;51.884;5.188;2023-02-26T11:40:47;8.00;91.30
18729;DHT22;9493;51.884;5.188;2023-02-26T11:43:16;8.00;91.30
18729;DHT22;9493;51.884;5.188;2023-02-26T11:45:45;7.90;91.30
18729;DHT22;9493;51.884;5.188;2023-02-26T11:48:18;7.90;91.30
18729;DHT22;9493;51.884;5.188;2023-02-26T11:50:48;8.50;91.30
18729;DHT22;9493;51.884;5.188;2023-02-26T11:53:19;8.70;91.20
18729;DHT22;9493;51.884;5.188;2023-02-26T11:55:51;8.30;91.20
18729;DHT22;9493;51.884;5.188;2023-02-26T11:58:20;8.60;91.00
18729;DHT22;9493;51.884;5.188;2023-02-26T12:00:48;8.40;90.70
18729;DHT22;9493;51.884;5.188;2023-02-26T12:03:20;8.80;90.50
18729;DHT22;9493;51.884;5.188;2023-02-26T12:05:47;9.00;90.40
18729;DHT22;9493;51.884;5.188;2023-02-26T12:08:18;8.30;90.30
18729;DHT22;9493;51.884;5.188;2023-02-26T12:10:55;8.40;89.90
18729;DHT22;9493;51.884;5.188;2023-02-26T12:13:26;9.00;89.60
18729;DHT22;9493;51.884;5.188;2023-02-26T12:15:58;9.00;89.70
18729;DHT22;9493;51.884;5.188;2023-02-26T12:18:36;9.30;89.50
18729;DHT22;9493;51.884;5.188;2023-02-26T12:21:14;9.60;89.30
18729;DHT22;9493;51.884;5.188;2023-02-26T12:24:06;9.90;88.10
18729;DHT22;9493;51.884;5.188;2023-02-26T12:26:40;9.50;87.70
18729;DHT22;9493;51.884;5.188;2023-02-26T12:29:32;9.20;87.10
18729;DHT22;9493;51.884;5.188;2023-02-26T12:38:24;9.60;86.90
18729;DHT22;9493;51.884;5.188;2023-02-26T12:41:04;9.60;86.70
18729;DHT22;9493;51.884;5.188;2023-02-26T12:43:43;9.10;86.70
18729;DHT22;9493;51.884;5.188;2023-02-26T12:46:19;9.30;86.90
18729;DHT22;9493;51.884;5.188;2023-02-26T12:52:05;9.40;86.40
18729;DHT22;9493;51.884;5.188;2023-02-26T12:54:59;9.30;86.20
18729;DHT22;9493;51.884;5.188;2023-02-26T12:58:01;9.50;85.90
18729;DHT22;9493;51.884;5.188;2023-02-26T13:00:46;9.70;85.60
18729;DHT22;9493;51.884;5.188;2023-02-26T13:09:31;9.70;84.20
18729;DHT22;9493;51.884;5.188;2023-02-26T13:12:06;9.60;83.60
18729;DHT22;9493;51.884;5.188;2023-02-26T13:14:43;9.80;83.40
18729;DHT22;9493;51.884;5.188;2023-02-26T13:17:21;10.30;83.00
18729;DHT22;9493;51.884;5.188;2023-02-26T13:19:51;9.80;83.20
18729;DHT22;9493;51.884;5.188;2023-02-26T13:22:21;10.10;83.30
18729;DHT22;9493;51.884;5.188;2023-02-26T13:24:54;10.70;84.30
18729;DHT22;9493;51.884;5.188;2023-02-26T13:27:25;11.10;84.50
18729;DHT22;9493;51.884;5.188;2023-02-26T13:30:03;10.30;83.50
18729;DHT22;9493;51.884;5.188;2023-02-26T13:32:33;10.20;83.10
18729;DHT22;9493;51.884;5.188;2023-02-26T13:35:04;10.50;82.10
18729;DHT22;9493;51.884;5.188;2023-02-26T13:37:34;10.50;82.00
18729;DHT22;9493;51.884;5.188;2023-02-26T13:40:33;10.50;82.10
18729;DHT22;9493;51.884;5.188;2023-02-26T13:43:13;10.30;81.80
18729;DHT22;9493;51.884;5.188;2023-02-26T13:45:49;10.40;81.70
18729;DHT22;9493;51.884;5.188;2023-02-26T13:48:26;9.60;81.60
18729;DHT22;9493;51.884;5.188;2023-02-26T13:50:59;9.30;81.70
18729;DHT22;9493;51.884;5.188;2023-02-26T13:53:50;10.20;81.50
18729;DHT22;9493;51.884;5.188;2023-02-26T13:56:21;10.60;81.40
18729;DHT22;9493;51.884;5.188;2023-02-26T13:58:52;10.90;81.50
18729;DHT22;9493;51.884;5.188;2023-02-26T14:01:26;10.60;81.80
18729;DHT22;9493;51.884;5.188;2023-02-26T14:04:07;10.60;82.50
18729;DHT22;9493;51.884;5.188;2023-02-26T14:06:40;11.50;82.50
18729;DHT22;9493;51.884;5.188;2023-02-26T14:09:30;10.90;82.00
18729;DHT22;9493;51.884;5.188;2023-02-26T14:12:03;10.80;80.70
18729;DHT22;9493;51.884;5.188;2023-02-26T14:14:35;10.70;80.40
18729;DHT22;9493;51.884;5.188;2023-02-26T14:17:28;10.70;79.90
18729;DHT22;9493;51.884;5.188;2023-02-26T14:20:29;10.50;79.60
18729;DHT22;9493;51.884;5.188;2023-02-26T14:23:23;10.60;79.30
18729;DHT22;9493;51.884;5.188;2023-02-26T14:25:53;10.60;79.00
18729;DHT22;9493;51.884;5.188;2023-02-26T14:28:44;10.90;79.50
18729;DHT22;9493;51.884;5.188;2023-02-26T14:31:16;10.70;79.50
18729;DHT22;9493;51.884;5.188;2023-02-26T14:33:46;11.00;80.70
18729;DHT22;9493;51.884;5.188;2023-02-26T14:36:30;10.70;80.40
18729;DHT22;9493;51.884;5.188;2023-02-26T14:38:59;10.70;80.80
18729;DHT22;9493;51.884;5.188;2023-02-26T14:41:31;11.10;80.50
18729;DHT22;9493;51.884;5.188;2023-02-26T14:44:03;11.00;80.40
18729;DHT22;9493;51.884;5.188;2023-02-26T14:46:33;10.70;80.10
18729;DHT22;9493;51.884;5.188;2023-02-26T14:49:00;10.90;79.80
18729;DHT22;9493;51.884;5.188;2023-02-26T14:51:40;11.10;79.70
18729;DHT22;9493;51.884;5.188;2023-02-26T14:54:20;10.90;79.10
18729;DHT22;9493;51.884;5.188;2023-02-26T14:56:58;10.90;78.80
18729;DHT22;9493;51.884;5.188;2023-02-26T14:59:42;10.70;78.70
18729;DHT22;9493;51.884;5.188;2023-02-26T15:02:23;10.60;79.00
18729;DHT22;9493;51.884;5.188;2023-02-26T15:05:16;11.20;78.70
18729;DHT22;9493;51.884;5.188;2023-02-26T15:08:09;10.70;78.70
18729;DHT22;9493;51.884;5.188;2023-02-26T15:10:54;10.70;78.70
18729;DHT22;9493;51.884;5.188;2023-02-26T15:13:38;10.20;78.50
18729;DHT22;9493;51.884;5.188;2023-02-26T15:16:15;10.10;77.90
18729;DHT22;9493;51.884;5.188;2023-02-26T15:18:58;9.90;78.00
18729;DHT22;9493;51.884;5.188;2023-02-26T15:21:34;10.10;78.00
18729;DHT22;9493;51.884;5.188;2023-02-26T15:24:04;9.90;78.90
18729;DHT22;9493;51.884;5.188;2023-02-26T15:26:41;9.70;79.20
18729;DHT22;9493;51.884;5.188;2023-02-26T15:29:12;9.30;80.10
18729;DHT22;9493;51.884;5.188;2023-02-26T15:31:43;9.80;81.30
18729;DHT22;9493;51.884;5.188;2023-02-26T15:34:11;9.70;81.20
18729;DHT22;9493;51.884;5.188;2023-02-26T15:36:40;9.50;81.30
18729;DHT22;9493;51.884;5.188;2023-02-26T15:39:08;9.60;81.30
18729;DHT22;9493;51.884;5.188;2023-02-26T15:41:36;9.80;80.90
18729;DHT22;9493;51.884;5.188;2023-02-26T15:44:07;9.50;80.70
18729;DHT22;9493;51.884;5.188;2023-02-26T15:46:37;9.40;80.10
18729;DHT22;9493;51.884;5.188;2023-02-26T15:49:07;9.20;79.80
18729;DHT22;9493;51.884;5.188;2023-02-26T15:51:36;9.00;79.60
18729;DHT22;9493;51.884;5.188;2023-02-26T15:54:04;9.00;79.50
18729;DHT22;9493;51.884;5.188;2023-02-26T15:56:33;9.20;80.80
18729;DHT22;9493;51.884;5.188;2023-02-26T15:59:03;8.90;81.00
18729;DHT22;9493;51.884;5.188;2023-02-26T16:01:32;8.80;81.40
18729;DHT22;9493;51.884;5.188;2023-02-26T16:04:03;8.90;82.00
18729;DHT22;9493;51.884;5.188;2023-02-26T16:06:35;8.50;82.00
18729;DHT22;9493;51.884;5.188;2023-02-26T16:09:04;8.30;82.00
18729;DHT22;9493;51.884;5.188;2023-02-26T16:11:33;8.60;82.20
18729;DHT22;9493;51.884;5.188;2023-02-26T16:14:01;8.40;82.30
18729;DHT22;9493;51.884;5.188;2023-02-26T16:16:39;8.50;82.00
18729;DHT22;9493;51.884;5.188;2023-02-26T16:19:09;8.50;82.00
18729;DHT22;9493;51.884;5.188;2023-02-26T16:21:41;8.40;82.30
18729;DHT22;9493;51.884;5.188;2023-02-26T16:24:12;8.80;82.20
18729;DHT22;9493;51.884;5.188;2023-02-26T16:26:43;8.70;82.20
18729;DHT22;9493;51.884;5.188;2023-02-26T16:29:13;9.10;82.30
18729;DHT22;9493;51.884;5.188;2023-02-26T16:31:41;9.60;82.60
18729;DHT22;9493;51.884;5.188;2023-02-26T16:34:34;9.00;82.40
18729;DHT22;9493;51.884;5.188;2023-02-26T16:37:21;8.10;82.60
18729;DHT22;9493;51.884;5.188;2023-02-26T16:39:53;7.50;83.00
18729;DHT22;9493;51.884;5.188;2023-02-26T16:42:30;7.20;83.20
18729;DHT22;9493;51.884;5.188;2023-02-26T16:45:02;7.10;84.70